Time;durP1;ratioP1;P1;durP2;ratioP2;P2;SDS_P1;SDS_P2;PMS_P1;PMS_P2;Temp;Humidity;BMP_temperature;BMP_pressure;BME280_temperature;BME280_humidity;BME280_pressure;Samples;Min_cycle;Max_cycle;Signal;HPM_P1;HPM_P2
2023/08/29 00:01:44;;;;;;;8.80;7.28;;;18.80;57.70;;;;;;4975643;28;20057;-63
2023/08/29 00:04:11;;;;;;;9.15;7.93;;;18.70;57.70;;;;;;4974975;28;20061;-62
2023/08/29 00:06:38;;;;;;;9.10;7.63;;;18.70;57.70;;;;;;4978885;28;20073;-63
2023/08/29 00:09:06;;;;;;;8.07;7.28;;;18.70;57.70;;;;;;4973994;28;20059;-63
2023/08/29 00:11:33;;;;;;;12.48;8.95;;;18.70;57.70;;;;;;4978403;28;20410;-60
2023/08/29 00:14:00;;;;;;;7.78;7.00;;;18.70;57.70;;;;;;4977223;28;20410;-63
2023/08/29 00:16:27;;;;;;;8.20;6.63;;;18.70;57.70;;;;;;4966421;28;20423;-63
2023/08/29 00:18:56;;;;;;;7.55;6.75;;;18.70;57.70;;;;;;4973213;28;20506;-63
2023/08/29 00:21:24;;;;;;;8.85;6.43;;;18.70;57.70;;;;;;4972819;28;20490;-63
2023/08/29 00:23:51;;;;;;;7.88;6.25;;;18.70;57.70;;;;;;4979850;28;20054;-62
2023/08/29 00:26:18;;;;;;;8.75;5.45;;;18.70;57.80;;;;;;4980027;28;20062;-63
2023/08/29 00:28:46;;;;;;;5.75;5.15;;;18.60;57.70;;;;;;4975104;28;20065;-63
2023/08/29 00:31:13;;;;;;;7.00;5.85;;;18.60;57.60;;;;;;4968477;28;20054;-63
2023/08/29 00:33:41;;;;;;;9.20;6.57;;;18.60;57.60;;;;;;4977594;28;20490;-63
2023/08/29 00:36:09;;;;;;;11.90;8.20;;;18.60;57.50;;;;;;4968630;28;20051;-63
2023/08/29 00:38:37;;;;;;;10.45;8.50;;;18.60;57.50;;;;;;4974406;28;20054;-63
2023/08/29 00:41:04;;;;;;;11.20;7.13;;;18.60;57.50;;;;;;4978512;28;20062;-64
2023/08/29 00:43:31;;;;;;;11.48;6.63;;;18.60;57.40;;;;;;4978005;28;20057;-63
2023/08/29 00:45:59;;;;;;;11.95;8.45;;;18.60;57.40;;;;;;4975856;28;20059;-61
2023/08/29 00:48:27;;;;;;;13.20;8.23;;;18.50;57.40;;;;;;4978915;28;20509;-62
2023/08/29 00:50:54;;;;;;;11.43;8.45;;;18.50;57.40;;;;;;4974697;28;20513;-64
2023/08/29 00:53:24;;;;;;;10.32;8.15;;;18.50;57.50;;;;;;4977443;28;20499;-57
2023/08/29 00:55:52;;;;;;;10.63;7.68;;;18.50;57.60;;;;;;4972509;28;20058;-56
2023/08/29 00:58:20;;;;;;;10.48;7.70;;;18.50;57.60;;;;;;4976551;28;20046;-57
2023/08/29 01:00:49;;;;;;;8.23;7.03;;;18.50;57.70;;;;;;4997488;23;20062;-56
2023/08/29 01:03:16;;;;;;;7.32;6.60;;;18.40;57.60;;;;;;4976930;28;20055;-56
2023/08/29 01:05:43;;;;;;;12.32;8.38;;;18.40;57.60;;;;;;4972340;28;20047;-51
2023/08/29 01:08:11;;;;;;;11.68;10.20;;;18.40;57.70;;;;;;4972269;28;20080;-55
2023/08/29 01:10:51;;;;;;;11.70;8.77;;;18.40;57.80;;;;;;4975612;28;20137;-57
2023/08/29 01:13:29;;;;;;;11.18;8.57;;;18.40;57.90;;;;;;4977087;28;20057;-55
2023/08/29 01:16:01;;;;;;;8.82;7.88;;;18.40;58.00;;;;;;4976933;28;20050;-55
2023/08/29 01:18:31;;;;;;;7.75;6.95;;;18.40;58.00;;;;;;4974771;28;20046;-57
2023/08/29 01:21:07;;;;;;;10.45;7.25;;;18.40;58.00;;;;;;4971280;28;20050;-56
2023/08/29 01:23:40;;;;;;;7.75;6.95;;;18.40;58.00;;;;;;4978354;28;20359;-55
2023/08/29 01:26:13;;;;;;;7.70;6.70;;;18.40;58.00;;;;;;4976515;28;20508;-55
2023/08/29 01:28:41;;;;;;;7.97;6.93;;;18.40;57.90;;;;;;4974600;28;20485;-53
2023/08/29 01:31:09;;;;;;;12.98;8.15;;;18.40;57.90;;;;;;4970630;28;20050;-55
2023/08/29 01:33:38;;;;;;;8.60;6.82;;;18.40;58.20;;;;;;4973935;28;20054;-55
2023/08/29 01:36:05;;;;;;;8.85;7.95;;;18.40;57.90;;;;;;4970021;28;20479;-55
2023/08/29 01:38:33;;;;;;;11.25;7.97;;;18.40;57.90;;;;;;4977758;28;20050;-57
2023/08/29 01:41:00;;;;;;;10.07;8.15;;;18.40;58.00;;;;;;4973877;28;20054;-56
2023/08/29 01:43:29;;;;;;;10.50;8.05;;;18.40;58.00;;;;;;4973895;28;20055;-54
2023/08/29 01:45:56;;;;;;;9.85;8.40;;;18.40;58.00;;;;;;4968218;28;20054;-55
2023/08/29 01:48:23;;;;;;;9.70;8.18;;;18.40;58.00;;;;;;4978344;28;20050;-55
2023/08/29 01:50:50;;;;;;;9.82;8.55;;;18.40;58.00;;;;;;4971052;28;20486;-55
2023/08/29 01:53:18;;;;;;;14.20;10.40;;;18.40;58.10;;;;;;4975591;28;20050;-55
2023/08/29 01:55:46;;;;;;;10.38;9.35;;;18.40;58.20;;;;;;4973699;28;20073;-56
2023/08/29 01:58:15;;;;;;;11.15;9.38;;;18.30;58.10;;;;;;4976727;28;20057;-54
2023/08/29 02:00:44;;;;;;;11.60;9.85;;;18.40;58.30;;;;;;4973802;28;20093;-57
2023/08/29 02:03:11;;;;;;;11.73;9.65;;;18.30;58.30;;;;;;4976734;28;20057;-56
2023/08/29 02:05:39;;;;;;;10.13;9.02;;;18.40;58.30;;;;;;4968769;28;20050;-57
2023/08/29 02:08:06;;;;;;;12.18;9.00;;;18.30;58.30;;;;;;4977168;28;20057;-57
2023/08/29 02:10:34;;;;;;;11.80;9.30;;;18.40;58.30;;;;;;4970832;28;20074;-56
2023/08/29 02:13:01;;;;;;;10.30;9.15;;;18.30;58.30;;;;;;4973949;28;20065;-57
2023/08/29 02:15:28;;;;;;;10.50;9.15;;;18.40;58.30;;;;;;4968155;28;20443;-58
2023/08/29 02:17:57;;;;;;;9.75;8.75;;;18.40;58.30;;;;;;4972562;28;20066;-58
2023/08/29 02:20:24;;;;;;;9.80;8.80;;;18.40;58.90;;;;;;4968617;28;20406;-58
2023/08/29 02:22:51;;;;;;;13.30;10.63;;;18.40;58.40;;;;;;4975069;28;20054;-57
2023/08/29 02:25:18;;;;;;;12.85;10.27;;;18.40;58.40;;;;;;4974166;28;20054;-58
2023/08/29 02:27:46;;;;;;;11.30;8.73;;;18.30;58.30;;;;;;4969991;28;20057;-57
2023/08/29 02:30:14;;;;;;;11.13;9.73;;;18.30;58.30;;;;;;4972576;28;20414;-56
2023/08/29 02:32:41;;;;;;;14.07;11.75;;;18.30;58.30;;;;;;4976690;28;20077;-57
2023/08/29 02:35:11;;;;;;;16.17;12.63;;;18.30;58.30;;;;;;4970850;28;20518;-57
2023/08/29 02:37:38;;;;;;;20.40;14.50;;;18.30;58.40;;;;;;4973518;28;20056;-58
2023/08/29 02:40:08;;;;;;;18.65;14.10;;;18.20;58.50;;;;;;4973849;28;20429;-57
2023/08/29 02:42:36;;;;;;;22.35;16.10;;;18.10;58.60;;;;;;4961400;28;20489;-57
2023/08/29 02:45:04;;;;;;;19.90;14.48;;;18.10;58.90;;;;;;4974547;28;20073;-58
2023/08/29 02:47:31;;;;;;;17.08;14.73;;;18.00;59.10;;;;;;4978703;28;20050;-57
2023/08/29 02:49:58;;;;;;;16.60;14.63;;;17.90;59.20;;;;;;4973626;28;20372;-57
2023/08/29 02:52:26;;;;;;;16.13;13.32;;;17.90;59.40;;;;;;4973237;28;20054;-57
2023/08/29 02:54:53;;;;;;;19.88;12.93;;;17.80;59.50;;;;;;4978251;28;20065;-57
2023/08/29 02:57:20;;;;;;;18.52;14.63;;;17.70;59.60;;;;;;4978759;28;20050;-57
2023/08/29 02:59:48;;;;;;;16.55;13.65;;;17.70;59.80;;;;;;4974156;28;20601;-57
2023/08/29 03:02:15;;;;;;;14.70;13.10;;;17.70;59.90;;;;;;4978466;28;20057;-57
2023/08/29 03:04:43;;;;;;;21.02;15.70;;;17.70;60.00;;;;;;4976567;28;20057;-58
2023/08/29 03:07:10;;;;;;;18.63;14.73;;;17.60;60.10;;;;;;4972519;28;20061;-58
2023/08/29 03:09:38;;;;;;;16.42;14.25;;;17.60;60.30;;;;;;4980651;28;20063;-57
2023/08/29 03:12:06;;;;;;;17.92;14.70;;;17.60;60.30;;;;;;4978596;28;20130;-57
2023/08/29 03:14:33;;;;;;;18.38;14.52;;;17.60;60.40;;;;;;4978839;28;20058;-57
2023/08/29 03:17:01;;;;;;;16.50;14.77;;;17.60;60.50;;;;;;4968707;28;20157;-58
2023/08/29 03:19:28;;;;;;;17.02;14.52;;;17.60;60.60;;;;;;4977013;28;20055;-58
2023/08/29 03:21:55;;;;;;;19.42;14.73;;;17.60;60.60;;;;;;4976812;28;20402;-58
2023/08/29 03:24:23;;;;;;;17.52;13.73;;;17.60;60.60;;;;;;4977519;28;20130;-57
2023/08/29 03:26:51;;;;;;;14.10;11.95;;;17.60;60.70;;;;;;4976503;28;20061;-58
2023/08/29 03:29:19;;;;;;;18.42;13.25;;;17.60;60.70;;;;;;4978485;28;20050;-57
2023/08/29 03:31:46;;;;;;;16.00;13.23;;;17.60;60.70;;;;;;4973183;28;20082;-57
2023/08/29 03:34:13;;;;;;;18.15;13.95;;;17.60;60.70;;;;;;4978604;28;20198;-58
2023/08/29 03:36:41;;;;;;;14.90;12.02;;;17.60;60.60;;;;;;4976606;28;20054;-57
2023/08/29 03:39:08;;;;;;;17.38;12.45;;;17.70;60.60;;;;;;4977593;28;20483;-58
2023/08/29 03:41:35;;;;;;;18.15;15.50;;;17.70;60.60;;;;;;4973209;28;20054;-57
2023/08/29 03:44:05;;;;;;;20.00;16.08;;;17.70;60.50;;;;;;4972322;28;20051;-58
2023/08/29 03:46:32;;;;;;;20.35;14.55;;;17.70;60.40;;;;;;4971706;28;20074;-58
2023/08/29 03:48:59;;;;;;;15.98;13.23;;;17.60;60.30;;;;;;4980865;28;20050;-57
2023/08/29 03:51:26;;;;;;;18.10;14.20;;;17.70;60.40;;;;;;4971831;28;20049;-57
2023/08/29 03:53:54;;;;;;;17.80;13.82;;;17.70;60.50;;;;;;4976399;28;20050;-57
2023/08/29 03:56:21;;;;;;;16.42;13.75;;;17.60;60.40;;;;;;4975627;28;20422;-57
2023/08/29 03:58:49;;;;;;;15.88;12.02;;;17.60;60.40;;;;;;4973325;28;20370;-58
2023/08/29 04:01:19;;;;;;;12.90;11.52;;;17.60;60.40;;;;;;4974504;28;20081;-57
2023/08/29 04:03:47;;;;;;;12.60;10.80;;;17.60;60.50;;;;;;4973893;28;20463;-57
2023/08/29 04:06:14;;;;;;;11.45;10.25;;;17.60;60.40;;;;;;4971905;28;20058;-57
2023/08/29 04:08:41;;;;;;;15.05;11.10;;;17.60;60.40;;;;;;4977800;28;20050;-57
2023/08/29 04:11:09;;;;;;;12.98;10.85;;;17.60;60.40;;;;;;4974110;28;20050;-58
2023/08/29 04:13:36;;;;;;;15.30;12.82;;;17.60;60.30;;;;;;4971720;28;20057;-56
2023/08/29 04:16:04;;;;;;;17.50;13.93;;;17.60;60.30;;;;;;4977115;28;20059;-58
2023/08/29 04:18:33;;;;;;;16.35;14.15;;;17.60;60.20;;;;;;4973910;28;20058;-58
2023/08/29 04:21:01;;;;;;;18.55;13.07;;;17.70;60.30;;;;;;4973788;28;20802;-58
2023/08/29 04:23:28;;;;;;;16.83;13.93;;;17.70;60.30;;;;;;4968454;28;20062;-56
2023/08/29 04:26:00;;;;;;;15.90;13.68;;;17.70;60.40;;;;;;4979217;28;20054;-58
2023/08/29 04:28:27;;;;;;;16.58;13.80;;;17.70;60.50;;;;;;4981332;28;20399;-58
2023/08/29 04:30:55;;;;;;;19.00;14.07;;;17.70;60.50;;;;;;4973134;28;20054;-58
2023/08/29 04:33:22;;;;;;;20.95;15.85;;;17.70;60.60;;;;;;4972652;28;20520;-55
2023/08/29 04:35:52;;;;;;;18.05;14.73;;;17.70;60.70;;;;;;4975539;28;20057;-49
2023/08/29 04:38:19;;;;;;;25.13;18.30;;;17.70;60.90;;;;;;4971258;28;20055;-54
2023/08/29 04:40:47;;;;;;;16.63;13.30;;;17.70;60.90;;;;;;4975453;28;20606;-55
2023/08/29 04:43:14;;;;;;;19.00;14.98;;;17.60;60.90;;;;;;4974876;28;20054;-54
2023/08/29 04:45:43;;;;;;;19.63;16.17;;;17.70;61.00;;;;;;4974033;28;20054;-53
2023/08/29 04:48:10;;;;;;;18.50;14.20;;;17.70;61.00;;;;;;4973864;28;20087;-56
2023/08/29 04:50:39;;;;;;;19.42;16.30;;;17.60;61.00;;;;;;4972287;28;20606;-56
2023/08/29 04:53:08;;;;;;;19.65;15.07;;;17.70;61.20;;;;;;4969944;28;20481;-54
2023/08/29 04:55:35;;;;;;;23.50;17.92;;;17.70;61.70;;;;;;4974282;28;20157;-54
2023/08/29 04:58:02;;;;;;;23.67;17.30;;;17.70;61.20;;;;;;4976699;28;20054;-55
2023/08/29 05:00:29;;;;;;;19.27;15.48;;;17.70;61.30;;;;;;4970359;28;20097;-55
2023/08/29 05:02:57;;;;;;;25.65;17.48;;;17.70;61.40;;;;;;4973979;28;20053;-53
2023/08/29 05:05:24;;;;;;;27.33;17.48;;;17.70;61.40;;;;;;4972565;28;20053;-56
2023/08/29 05:07:51;;;;;;;22.20;18.30;;;17.70;61.60;;;;;;4970744;28;20379;-56
2023/08/29 05:10:20;;;;;;;21.42;16.48;;;17.70;61.70;;;;;;4976791;28;20057;-54
2023/08/29 05:12:47;;;;;;;22.52;18.42;;;17.70;61.80;;;;;;4969578;28;20050;-50
2023/08/29 05:15:16;;;;;;;20.45;16.67;;;17.70;61.90;;;;;;4969371;28;20084;-54
2023/08/29 05:17:44;;;;;;;25.05;16.85;;;17.70;61.90;;;;;;4978971;28;20058;-54
2023/08/29 05:20:12;;;;;;;25.13;19.17;;;17.70;62.00;;;;;;4971649;28;20081;-51
2023/08/29 05:22:39;;;;;;;23.13;17.85;;;17.70;62.10;;;;;;4977189;28;20061;-54
2023/08/29 05:25:07;;;;;;;23.70;17.67;;;17.70;62.10;;;;;;4976851;28;20058;-53
2023/08/29 05:27:36;;;;;;;22.08;17.52;;;17.70;62.20;;;;;;4974505;28;20062;-53
2023/08/29 05:30:04;;;;;;;23.88;17.50;;;17.80;62.30;;;;;;4971459;28;20525;-57
2023/08/29 05:32:32;;;;;;;21.90;18.33;;;17.80;62.40;;;;;;4976061;28;20058;-55
2023/08/29 05:34:59;;;;;;;24.30;17.67;;;17.80;62.40;;;;;;4971078;28;20553;-55
2023/08/29 05:37:26;;;;;;;21.20;17.17;;;17.80;62.50;;;;;;4975247;28;20054;-56
2023/08/29 05:39:53;;;;;;;27.77;19.20;;;17.80;62.50;;;;;;4974480;28;20059;-55
2023/08/29 05:42:21;;;;;;;25.00;19.17;;;17.80;62.50;;;;;;4974466;28;20058;-54
2023/08/29 05:44:49;;;;;;;26.80;19.42;;;17.90;62.60;;;;;;4974305;28;20049;-56
2023/08/29 05:47:16;;;;;;;31.13;22.98;;;17.90;62.60;;;;;;4975253;28;20056;-55
2023/08/29 05:49:44;;;;;;;28.98;21.58;;;17.90;62.80;;;;;;4975079;28;20080;-51
2023/08/29 05:52:11;;;;;;;30.90;22.65;;;17.90;62.90;;;;;;4974770;28;20046;-57
2023/08/29 05:54:38;;;;;;;27.70;20.83;;;17.90;63.00;;;;;;4976222;28;20430;-54
2023/08/29 05:57:06;;;;;;;29.45;20.58;;;17.90;63.10;;;;;;4975325;28;20070;-55
2023/08/29 05:59:34;;;;;;;28.30;20.63;;;17.90;63.20;;;;;;4971561;28;20066;-57
2023/08/29 06:02:03;;;;;;;40.15;22.77;;;17.90;63.30;;;;;;4971201;28;20054;-53
2023/08/29 06:04:30;;;;;;;27.33;19.58;;;17.90;63.30;;;;;;4974974;28;20057;-56
2023/08/29 06:06:58;;;;;;;30.15;20.80;;;17.90;63.30;;;;;;4972216;28;20061;-57
2023/08/29 06:09:26;;;;;;;29.88;21.17;;;17.90;63.30;;;;;;4969141;28;20061;-56
2023/08/29 06:11:53;;;;;;;36.05;22.92;;;17.90;63.30;;;;;;4972740;28;20062;-54
2023/08/29 06:14:20;;;;;;;38.25;23.50;;;17.90;63.40;;;;;;4974250;28;20043;-53
2023/08/29 06:16:48;;;;;;;32.97;21.75;;;17.90;63.40;;;;;;4967598;28;20616;-55
2023/08/29 06:19:17;;;;;;;33.42;21.90;;;17.90;63.40;;;;;;4975168;28;20061;-55
2023/08/29 06:21:44;;;;;;;30.40;21.80;;;17.90;63.50;;;;;;4980099;28;20074;-54
2023/08/29 06:24:11;;;;;;;30.27;20.75;;;17.90;63.50;;;;;;4979769;28;20406;-53
2023/08/29 06:26:39;;;;;;;53.47;31.33;;;18.00;63.60;;;;;;4983235;28;20478;-55
2023/08/29 06:29:06;;;;;;;35.50;22.45;;;18.00;63.60;;;;;;4961362;28;20054;-54
2023/08/29 06:31:33;;;;;;;28.15;20.60;;;18.00;63.70;;;;;;4981405;28;20426;-53
2023/08/29 06:34:01;;;;;;;28.00;19.20;;;18.00;63.70;;;;;;4977978;28;20509;-55
2023/08/29 06:36:29;;;;;;;35.90;23.85;;;18.00;63.80;;;;;;4982390;28;20051;-54
2023/08/29 06:38:57;;;;;;;36.85;24.17;;;18.10;63.90;;;;;;4976737;28;20063;-57
2023/08/29 06:41:24;;;;;;;38.95;23.73;;;18.10;63.90;;;;;;4983026;28;20058;-56
2023/08/29 06:43:51;;;;;;;26.17;19.88;;;18.10;63.80;;;;;;4982506;28;20054;-56
2023/08/29 06:46:18;;;;;;;35.38;22.67;;;18.10;63.80;;;;;;4983900;28;20054;-54
2023/08/29 06:48:46;;;;;;;32.72;21.73;;;18.10;63.80;;;;;;4972170;28;20077;-55
2023/08/29 06:51:13;;;;;;;36.03;24.00;;;18.10;63.80;;;;;;4978249;28;20057;-56
2023/08/29 06:53:42;;;;;;;40.22;26.00;;;18.10;63.90;;;;;;4980432;28;20047;-58
2023/08/29 06:56:11;;;;;;;40.28;27.10;;;18.10;63.90;;;;;;4980882;28;20054;-58
2023/08/29 06:58:39;;;;;;;32.55;23.80;;;18.10;64.10;;;;;;4980725;28;20054;-58
2023/08/29 07:01:06;;;;;;;28.83;20.67;;;18.00;64.30;;;;;;4977485;28;20063;-57
2023/08/29 07:03:34;;;;;;;33.33;23.77;;;18.00;64.50;;;;;;4983327;28;20406;-57
2023/08/29 07:06:01;;;;;;;36.40;25.20;;;18.10;64.80;;;;;;4981101;28;20067;-58
2023/08/29 07:08:28;;;;;;;37.17;25.27;;;18.10;64.90;;;;;;4982408;28;20054;-58
2023/08/29 07:10:57;;;;;;;43.42;29.58;;;18.10;65.10;;;;;;4982345;28;20058;-58
2023/08/29 07:13:24;;;;;;;41.75;27.15;;;18.10;65.00;;;;;;4980962;28;20513;-57
2023/08/29 07:15:51;;;;;;;35.45;25.30;;;18.10;64.80;;;;;;4975909;28;20062;-57
2023/08/29 07:18:20;;;;;;;39.42;26.73;;;18.10;64.90;;;;;;4975615;28;20395;-57
2023/08/29 07:20:49;;;;;;;42.53;29.05;;;18.10;65.00;;;;;;4978357;28;20109;-58
2023/08/29 07:23:17;;;;;;;42.53;28.65;;;18.10;65.00;;;;;;4982025;28;20062;-57
2023/08/29 07:25:45;;;;;;;41.78;29.65;;;18.10;65.60;;;;;;4982829;28;20062;-57
2023/08/29 07:28:14;;;;;;;42.20;29.20;;;18.10;65.50;;;;;;4982456;28;20521;-58
2023/08/29 07:30:46;;;;;;;46.60;30.80;;;18.10;64.90;;;;;;4981388;28;20065;-58
2023/08/29 07:33:13;;;;;;;46.88;31.63;;;18.10;65.20;;;;;;4974973;28;20057;-57
2023/08/29 07:35:41;;;;;;;50.50;31.05;;;18.10;65.40;;;;;;4980624;28;20058;-57
2023/08/29 07:38:09;;;;;;;60.67;37.17;;;18.10;65.70;;;;;;4981802;28;20054;-58
2023/08/29 07:40:36;;;;;;;64.45;37.47;;;18.10;65.90;;;;;;4983555;28;20058;-57
2023/08/29 07:43:06;;;;;;;64.82;39.40;;;18.10;65.70;;;;;;4980866;28;20073;-57
2023/08/29 07:45:35;;;;;;;69.57;41.30;;;18.10;65.60;;;;;;4976513;28;20057;-58
2023/08/29 07:48:03;;;;;;;66.72;41.90;;;18.10;65.40;;;;;;4980247;28;20137;-57
2023/08/29 07:50:31;;;;;;;59.80;39.15;;;18.10;65.40;;;;;;4981025;28;20406;-58
2023/08/29 07:52:59;;;;;;;59.30;38.63;;;18.10;65.50;;;;;;4981068;28;20065;-57
2023/08/29 07:55:26;;;;;;;64.90;41.70;;;18.00;65.70;;;;;;4982784;28;20495;-58
2023/08/29 07:57:53;;;;;;;64.70;41.55;;;18.10;66.00;;;;;;4982008;28;20085;-59
2023/08/29 08:00:21;;;;;;;60.50;40.67;;;18.00;66.20;;;;;;4976986;28;21024;-58
2023/08/29 08:02:49;;;;;;;60.33;39.45;;;18.00;66.30;;;;;;4978545;28;20065;-53
2023/08/29 08:05:17;;;;;;;59.17;39.33;;;18.00;66.50;;;;;;4979645;28;20070;-55
2023/08/29 08:07:46;;;;;;;55.45;37.28;;;18.00;66.50;;;;;;4979933;28;20065;-53
2023/08/29 08:10:15;;;;;;;50.67;35.53;;;18.00;66.50;;;;;;4982062;28;20065;-54
2023/08/29 08:12:42;;;;;;;52.25;36.60;;;18.00;66.50;;;;;;4977580;28;20046;-50
2023/08/29 08:15:10;;;;;;;52.95;35.65;;;18.00;66.50;;;;;;4979578;28;20051;-50
2023/08/29 08:17:38;;;;;;;51.53;36.28;;;18.00;66.70;;;;;;4979892;28;20058;-51
2023/08/29 08:20:08;;;;;;;54.75;37.88;;;18.10;66.80;;;;;;4980486;28;20061;-51
2023/08/29 08:22:36;;;;;;;54.35;37.95;;;18.10;66.70;;;;;;4982604;28;20058;-52
2023/08/29 08:25:04;;;;;;;67.93;47.22;;;18.10;66.90;;;;;;4980680;28;20055;-55
2023/08/29 08:27:31;;;;;;;72.72;49.33;;;18.20;66.40;;;;;;4977474;28;20054;-53
2023/08/29 08:29:59;;;;;;;64.55;46.85;;;18.20;66.00;;;;;;4980240;28;20053;-51
2023/08/29 08:32:27;;;;;;;65.63;46.58;;;18.20;65.80;;;;;;4979479;28;20050;-52
2023/08/29 08:34:55;;;;;;;70.28;49.30;;;18.20;65.70;;;;;;4979581;28;20061;-50
2023/08/29 08:37:24;;;;;;;69.32;49.28;;;18.20;65.50;;;;;;4979863;28;20065;-55
2023/08/29 08:39:51;;;;;;;80.60;53.90;;;18.30;65.50;;;;;;4980482;28;20062;-51
2023/08/29 08:42:20;;;;;;;90.15;58.55;;;18.30;65.70;;;;;;4977336;28;20057;-54
2023/08/29 08:44:47;;;;;;;85.13;55.65;;;18.30;65.40;;;;;;4978087;28;20058;-52
2023/08/29 08:47:15;;;;;;;80.05;52.55;;;18.40;65.30;;;;;;4980521;28;20084;-52
2023/08/29 08:49:42;;;;;;;94.88;61.88;;;18.40;65.30;;;;;;4975979;28;20470;-54
2023/08/29 08:52:12;;;;;;;101.43;64.22;;;18.40;65.40;;;;;;4978553;28;20058;-53
2023/08/29 08:54:41;;;;;;;107.40;67.45;;;18.50;65.20;;;;;;4975347;28;20866;-53
2023/08/29 08:57:11;;;;;;;106.05;63.90;;;18.50;64.60;;;;;;4976261;28;20130;-55
2023/08/29 08:59:39;;;;;;;98.68;61.60;;;18.50;64.70;;;;;;4980680;28;20431;-51
2023/08/29 09:02:11;;;;;;;108.63;64.47;;;18.60;64.40;;;;;;4978537;28;20065;-56
2023/08/29 09:04:39;;;;;;;103.45;64.30;;;18.50;63.80;;;;;;4980585;28;20073;-52
2023/08/29 09:07:06;;;;;;;104.20;65.30;;;18.60;64.30;;;;;;4979202;28;20069;-53
2023/08/29 09:09:34;;;;;;;101.85;63.30;;;18.60;63.80;;;;;;4980225;28;20062;-56
2023/08/29 09:12:03;;;;;;;100.55;62.63;;;18.60;64.10;;;;;;4974944;28;20487;-51
2023/08/29 09:14:32;;;;;;;109.45;68.88;;;18.60;64.20;;;;;;4980199;28;20426;-53
2023/08/29 09:17:01;;;;;;;105.18;67.05;;;18.60;64.50;;;;;;4977834;28;20064;-51
2023/08/29 09:19:33;;;;;;;112.13;69.05;;;18.70;64.90;;;;;;4977135;28;20313;-54
2023/08/29 09:22:01;;;;;;;115.57;69.03;;;18.70;64.20;;;;;;4975128;28;20371;-53
2023/08/29 09:24:33;;;;;;;108.65;67.88;;;18.70;64.00;;;;;;4973447;28;20058;-53
2023/08/29 09:27:07;;;;;;;115.63;68.30;;;18.80;63.80;;;;;;4976138;28;20066;-53
2023/08/29 09:29:35;;;;;;;108.93;68.60;;;18.80;63.80;;;;;;4977690;28;20485;-49
2023/08/29 09:32:12;;;;;;;106.88;65.40;;;18.80;63.90;;;;;;4978595;28;20066;-52
2023/08/29 09:34:39;;;;;;;96.60;64.18;;;18.90;64.40;;;;;;4978868;28;20069;-55
2023/08/29 09:37:07;;;;;;;82.68;57.10;;;18.90;64.40;;;;;;4979784;28;20057;-51
2023/08/29 09:39:34;;;;;;;81.85;56.38;;;18.90;64.10;;;;;;4980468;28;20050;-53
2023/08/29 09:42:05;;;;;;;69.45;49.80;;;19.00;63.80;;;;;;4972396;28;20058;-51
2023/08/29 09:44:36;;;;;;;80.68;55.03;;;19.10;62.90;;;;;;4975149;28;20368;-52
2023/08/29 09:47:04;;;;;;;76.47;52.80;;;19.10;62.70;;;;;;4980505;28;20363;-56
2023/08/29 09:49:33;;;;;;;68.18;46.17;;;19.10;62.90;;;;;;4979499;28;20096;-55
2023/08/29 09:52:02;;;;;;;62.35;43.22;;;19.20;62.50;;;;;;4979180;28;20054;-55
2023/08/29 09:54:33;;;;;;;60.65;43.58;;;19.10;62.30;;;;;;4973190;28;20073;-54
2023/08/29 09:57:06;;;;;;;54.75;39.85;;;19.20;62.50;;;;;;4973760;28;20153;-55
2023/08/29 09:59:39;;;;;;;64.63;44.50;;;19.20;62.50;;;;;;4974228;28;20506;-52
2023/08/29 10:02:09;;;;;;;64.30;44.80;;;19.20;62.40;;;;;;4976173;28;20502;-54
2023/08/29 10:04:40;;;;;;;58.88;43.50;;;19.30;61.90;;;;;;4976746;28;20054;-53
2023/08/29 10:07:10;;;;;;;66.25;44.38;;;19.30;61.70;;;;;;4971531;28;20054;-56
2023/08/29 10:09:37;;;;;;;68.63;47.67;;;19.30;62.00;;;;;;4973641;28;20066;-55
2023/08/29 10:12:07;;;;;;;57.25;41.42;;;19.40;62.10;;;;;;4974835;28;20062;-52
2023/08/29 10:14:35;;;;;;;59.63;42.22;;;19.40;62.00;;;;;;4972415;28;20480;-56
2023/08/29 10:17:03;;;;;;;57.95;42.15;;;19.40;61.50;;;;;;4970254;28;20057;-53
2023/08/29 10:19:32;;;;;;;58.65;40.00;;;19.40;61.20;;;;;;4975189;28;20059;-54
2023/08/29 10:22:01;;;;;;;64.25;49.50;;;19.50;61.00;;;;;;4973170;28;20077;-54
2023/08/29 10:24:30;;;;;;;57.25;44.35;;;19.50;61.20;;;;;;4972795;28;20058;-56
2023/08/29 10:26:59;;;;;;;63.60;46.65;;;19.50;61.90;;;;;;4974186;28;20060;-53
2023/08/29 10:29:27;;;;;;;63.45;46.97;;;19.60;62.00;;;;;;4975467;28;20050;-56
2023/08/29 10:31:55;;;;;;;54.88;40.85;;;19.60;61.40;;;;;;4973567;28;20070;-53
2023/08/29 10:34:24;;;;;;;47.92;38.22;;;19.60;60.80;;;;;;4973024;28;20076;-55
2023/08/29 10:36:51;;;;;;;53.92;42.67;;;19.70;60.40;;;;;;4970480;28;20058;-55
2023/08/29 10:39:20;;;;;;;51.20;38.85;;;19.70;60.50;;;;;;4973980;28;20062;-53
2023/08/29 10:41:49;;;;;;;59.45;40.45;;;19.70;60.40;;;;;;4971124;28;20051;-54
2023/08/29 10:44:40;;;;;;;53.70;39.90;;;19.80;60.70;;;;;;4974102;28;20050;-56
2023/08/29 10:47:23;;;;;;;48.25;37.63;;;19.90;60.50;;;;;;4976255;28;20399;-55
2023/08/29 10:49:57;;;;;;;53.33;40.53;;;19.90;60.50;;;;;;4974794;28;20077;-53
2023/08/29 10:52:34;;;;;;;56.40;42.28;;;20.00;59.80;;;;;;4970288;28;20105;-55
2023/08/29 10:55:08;;;;;;;54.97;39.35;;;20.10;59.70;;;;;;4971621;28;20054;-56
2023/08/29 10:57:35;;;;;;;;;;;20.10;59.30;;;;;;4967851;28;20077;-55
2023/08/29 11:00:17;;;;;;;43.70;32.15;;;20.10;59.50;;;;;;4969671;28;20389;-55
2023/08/29 11:02:44;;;;;;;42.70;30.75;;;20.20;59.40;;;;;;4967437;28;20070;-54
2023/08/29 11:05:13;;;;;;;38.15;29.83;;;20.30;59.50;;;;;;4970545;28;20046;-53
2023/08/29 11:07:41;;;;;;;34.30;26.67;;;20.30;58.30;;;;;;4973580;28;20042;-55
2023/08/29 11:10:16;;;;;;;27.02;22.52;;;20.30;58.30;;;;;;4977578;28;20065;-51
2023/08/29 11:13:02;;;;;;;35.35;25.05;;;20.40;58.20;;;;;;4975354;28;20050;-56
2023/08/29 11:16:10;;;;;;;37.03;28.98;;;20.50;58.50;;;;;;4977142;28;20061;-56
2023/08/29 11:18:37;;;;;;;30.33;21.77;;;20.50;57.40;;;;;;4953756;28;20073;-54
2023/08/29 11:21:09;;;;;;;28.83;22.85;;;20.60;57.30;;;;;;4972566;28;20062;-53
2023/08/29 11:23:40;;;;;;;31.05;23.50;;;20.60;57.50;;;;;;4973501;28;20513;-53
2023/08/29 11:26:09;;;;;;;35.70;26.30;;;20.60;57.00;;;;;;4974039;28;20050;-53
2023/08/29 11:28:41;;;;;;;36.17;28.63;;;20.70;57.40;;;;;;4975080;28;20061;-51
2023/08/29 11:31:10;;;;;;;34.20;26.55;;;20.70;57.50;;;;;;4975538;28;20528;-52
2023/08/29 11:33:38;;;;;;;24.65;19.45;;;20.80;57.10;;;;;;4976007;28;20050;-63
2023/08/29 11:36:07;;;;;;;24.00;18.95;;;20.80;56.40;;;;;;4976329;28;20053;-60
2023/08/29 11:38:34;;;;;;;26.67;19.58;;;20.90;55.80;;;;;;4969790;28;20062;-58
2023/08/29 11:41:05;;;;;;;20.13;16.02;;;20.90;56.00;;;;;;4974238;28;20510;-57
2023/08/29 11:43:33;;;;;;;25.33;17.80;;;20.90;56.50;;;;;;4974486;28;20058;-57
2023/08/29 11:46:03;;;;;;;28.33;19.75;;;21.00;56.10;;;;;;4973846;28;20053;-58
2023/08/29 11:48:33;;;;;;;25.98;17.30;;;21.00;55.20;;;;;;4976270;28;20054;-57
2023/08/29 11:51:02;;;;;;;20.33;16.30;;;21.10;55.60;;;;;;4970313;28;20066;-58
2023/08/29 11:53:30;;;;;;;19.92;15.07;;;21.10;55.90;;;;;;4976649;28;20163;-58
2023/08/29 11:55:59;;;;;;;18.50;14.07;;;21.20;55.70;;;;;;4971213;28;20058;-57
2023/08/29 11:58:28;;;;;;;21.38;15.35;;;21.30;55.40;;;;;;4974121;28;20057;-58
2023/08/29 12:00:55;;;;;;;19.17;14.35;;;21.30;55.30;;;;;;4973432;28;20080;-56
2023/08/29 12:03:25;;;;;;;17.02;13.27;;;21.30;55.30;;;;;;4975078;28;20054;-57
2023/08/29 12:05:57;;;;;;;21.55;14.27;;;21.40;55.00;;;;;;4973441;28;20081;-57
2023/08/29 12:08:42;;;;;;;19.05;15.35;;;21.50;54.80;;;;;;4973740;28;20065;-57
2023/08/29 12:11:12;;;;;;;18.30;12.90;;;21.60;54.00;;;;;;4977127;28;20058;-58
2023/08/29 12:13:41;;;;;;;21.45;15.88;;;21.50;54.30;;;;;;4976001;28;20547;-58
2023/08/29 12:16:16;;;;;;;19.13;14.45;;;21.60;54.50;;;;;;4974159;28;20505;-56
2023/08/29 12:18:44;;;;;;;18.48;13.35;;;21.60;54.40;;;;;;4975366;28;20058;-57
2023/08/29 12:21:17;;;;;;;21.90;16.55;;;21.60;53.50;;;;;;4976255;28;20061;-57
2023/08/29 12:23:45;;;;;;;25.77;16.48;;;21.60;52.50;;;;;;4977509;28;20046;-57
2023/08/29 12:26:14;;;;;;;17.85;13.57;;;21.60;53.20;;;;;;4975478;28;20410;-57
2023/08/29 12:28:42;;;;;;;20.95;16.33;;;21.60;53.50;;;;;;4975762;28;20502;-59
2023/08/29 12:31:09;;;;;;;22.08;14.98;;;21.60;53.00;;;;;;4972463;28;20386;-58
2023/08/29 12:33:36;;;;;;;25.48;15.55;;;21.60;51.60;;;;;;4976634;28;20058;-59
2023/08/29 12:36:04;;;;;;;20.23;15.60;;;21.60;51.40;;;;;;4974305;28;20046;-59
2023/08/29 12:38:33;;;;;;;18.35;14.65;;;21.50;51.80;;;;;;4978357;28;20516;-57